Time;durP1;ratioP1;P1;durP2;ratioP2;P2;SDS_P1;SDS_P2;PMS_P1;PMS_P2;Temp;Humidity;BMP_temperature;BMP_pressure;BME280_temperature;BME280_humidity;BME280_pressure;Samples;Min_cycle;Max_cycle;Signal;HPM_P1;HPM_P2
2022/04/27 00:00:18;;;;;;;;;;;9.10;99.90;;;;;;5086121;28;19924;-68
2022/04/27 00:02:45;;;;;;;;;;;9.10;99.90;;;;;;5083758;28;19924;-69
2022/04/27 00:05:13;;;;;;;;;;;9.00;99.90;;;;;;5093157;28;19924;-67
2022/04/27 00:07:39;;;;;;;;;;;9.00;99.90;;;;;;5087660;28;19932;-68
2022/04/27 00:10:06;;;;;;;;;;;9.00;99.90;;;;;;5090849;28;19924;-68
2022/04/27 00:12:35;;;;;;;;;;;8.90;99.90;;;;;;5091903;28;19924;-68
2022/04/27 00:15:01;;;;;;;;;;;8.90;99.90;;;;;;5091945;28;19924;-68
2022/04/27 00:17:28;;;;;;;;;;;8.80;99.90;;;;;;5083877;28;19990;-68
2022/04/27 00:19:54;;;;;;;;;;;8.80;99.90;;;;;;5087218;28;19974;-68
2022/04/27 00:22:22;;;;;;;;;;;8.90;99.90;;;;;;5087756;28;19931;-68
2022/04/27 00:24:49;;;;;;;;;;;8.90;99.90;;;;;;5084829;28;19924;-69
2022/04/27 00:27:15;;;;;;;;;;;8.90;99.90;;;;;;5088676;28;19973;-68
2022/04/27 00:29:42;;;;;;;;;;;9.00;99.90;;;;;;5086380;28;19932;-69
2022/04/27 00:32:09;;;;;;;;;;;9.10;99.90;;;;;;5085772;28;19932;-69
2022/04/27 00:34:35;;;;;;;;;;;9.10;99.90;;;;;;5086063;28;19939;-69
2022/04/27 00:37:02;;;;;;;;;;;9.10;99.90;;;;;;5084146;28;19924;-69
2022/04/27 00:39:30;;;;;;;;;;;9.10;99.90;;;;;;5076789;28;19925;-69
2022/04/27 00:42:02;;;;;;;;;;;9.10;99.90;;;;;;5086810;28;19924;-68
2022/04/27 00:44:29;;;;;;;;;;;9.20;99.90;;;;;;5088556;28;19931;-68
2022/04/27 00:46:56;;;;;;;;;;;9.20;99.90;;;;;;5086960;28;19958;-68
2022/04/27 00:49:23;;;;;;;;;;;9.20;99.90;;;;;;5087849;28;19924;-69
2022/04/27 00:51:50;;;;;;;;;;;9.20;99.90;;;;;;5085787;28;19924;-69
2022/04/27 00:54:18;;;;;;;;;;;9.20;99.90;;;;;;5087989;28;20378;-69
2022/04/27 00:56:46;;;;;;;;;;;9.20;99.90;;;;;;5102428;28;19924;-68
2022/04/27 00:59:13;;;;;;;;;;;9.20;99.90;;;;;;5087471;28;19928;-69
2022/04/27 01:01:40;;;;;;;;;;;9.20;99.90;;;;;;5084468;28;19924;-69
2022/04/27 01:04:07;;;;;;;;;;;9.20;99.90;;;;;;5086560;28;19936;-69
2022/04/27 01:06:34;;;;;;;;;;;9.20;99.90;;;;;;5080467;28;20301;-68
2022/04/27 01:09:01;;;;;;;;;;;9.20;99.90;;;;;;5075270;28;20439;-68
2022/04/27 01:11:27;;;;;;;;;;;9.20;99.90;;;;;;5080411;28;20405;-68
2022/04/27 01:13:55;;;;;;;;;;;9.20;99.90;;;;;;5087042;28;19927;-69
2022/04/27 01:16:22;;;;;;;;;;;9.20;99.90;;;;;;5087350;28;19935;-68
2022/04/27 01:18:50;;;;;;;;;;;9.20;99.90;;;;;;5086836;28;20380;-70
2022/04/27 01:21:17;;;;;;;;;;;9.20;99.90;;;;;;5081337;28;19979;-69
2022/04/27 01:23:44;;;;;;;;;;;9.20;99.90;;;;;;5087862;28;19985;-68
2022/04/27 01:26:11;;;;;;;;;;;9.20;99.90;;;;;;5086955;28;20019;-68
2022/04/27 01:28:38;;;;;;;;;;;9.20;99.90;;;;;;5085527;28;19974;-68
2022/04/27 01:31:05;;;;;;;;;;;9.20;99.90;;;;;;5080963;28;19932;-70
2022/04/27 01:33:34;;;;;;;;;;;9.20;99.90;;;;;;5082170;28;19935;-70
2022/04/27 01:36:00;;;;;;;;;;;9.20;99.90;;;;;;5077465;28;19977;-70
2022/04/27 01:38:33;;;;;;;;;;;9.20;99.90;;;;;;5086130;28;20001;-69
2022/04/27 01:41:00;;;;;;;;;;;9.20;99.90;;;;;;5102973;22;19949;-70
2022/04/27 01:43:26;;;;;;;;;;;9.20;99.90;;;;;;5023700;28;19933;-71
2022/04/27 01:45:53;;;;;;;;;;;9.10;99.90;;;;;;5024394;28;19933;-70
2022/04/27 01:48:20;;;;;;;;;;;9.20;99.90;;;;;;5023101;28;19972;-70
2022/04/27 01:50:47;;;;;;;;;;;9.10;99.90;;;;;;5021809;28;19933;-69
2022/04/27 01:55:59;;;;;;;;;;;9.10;99.90;;;;;;5021958;28;20494;-69
2022/04/27 01:58:25;;;;;;;;;;;9.10;99.90;;;;;;5026111;28;19925;-69
2022/04/27 02:00:52;;;;;;;;;;;9.20;99.90;;;;;;5022932;28;20345;-69
2022/04/27 02:03:19;;;;;;;;;;;9.10;99.90;;;;;;5024227;28;19956;-69
2022/04/27 02:05:46;;;;;;;;;;;9.20;99.90;;;;;;5023184;28;19925;-69
2022/04/27 02:08:12;;;;;;;;;;;9.20;99.90;;;;;;5026195;28;19948;-69
2022/04/27 02:10:39;;;;;;;;;;;9.10;99.90;;;;;;5025887;28;20449;-69
2022/04/27 02:13:09;;;;;;;;;;;9.10;99.90;;;;;;5027759;28;19929;-69
2022/04/27 02:15:36;;;;;;;;;;;9.20;99.90;;;;;;5026079;28;19972;-69
2022/04/27 02:18:03;;;;;;;;;;;9.10;99.90;;;;;;5024435;28;19929;-69
2022/04/27 02:20:29;;;;;;;;;;;9.10;99.90;;;;;;5023627;28;19933;-69
2022/04/27 02:22:56;;;;;;;;;;;9.10;99.90;;;;;;5025341;28;19963;-69
2022/04/27 02:25:23;;;;;;;;;;;9.10;99.90;;;;;;5026807;28;19933;-69
2022/04/27 02:27:50;;;;;;;;;;;9.10;99.90;;;;;;5028614;28;19933;-69
2022/04/27 02:30:19;;;;;;;;;;;9.10;99.90;;;;;;5026812;28;20379;-71
2022/04/27 02:32:46;;;;;;;;;;;9.10;99.90;;;;;;5026545;28;20027;-69
2022/04/27 02:35:13;;;;;;;;;;;9.10;99.90;;;;;;5022099;28;19925;-69
2022/04/27 02:37:40;;;;;;;;;;;9.00;99.90;;;;;;5026609;28;20007;-69
2022/04/27 02:40:09;;;;;;;;;;;9.10;99.90;;;;;;5022863;28;19933;-69
2022/04/27 02:42:35;;;;;;;;;;;9.10;99.90;;;;;;5025012;28;19929;-69
2022/04/27 02:45:02;;;;;;;;;;;9.10;99.90;;;;;;5023721;28;19930;-69
2022/04/27 02:47:30;;;;;;;;;;;9.10;99.90;;;;;;5026246;28;19929;-69
2022/04/27 02:52:41;;;;;;;;;;;9.00;99.90;;;;;;5025339;28;20734;-69
2022/04/27 02:55:07;;;;;;;;;;;9.00;99.90;;;;;;5023715;28;19929;-69
2022/04/27 02:57:34;;;;;;;;;;;9.00;99.90;;;;;;5025599;28;19986;-69
2022/04/27 03:00:01;;;;;;;;;;;9.00;99.90;;;;;;5018629;28;20449;-69
2022/04/27 03:02:27;;;;;;;;;;;8.90;99.90;;;;;;5021415;28;19925;-69
2022/04/27 03:04:55;;;;;;;;;;;9.00;99.90;;;;;;5022881;28;19925;-71
2022/04/27 03:07:21;;;;;;;;;;;8.90;99.90;;;;;;5025708;28;19929;-68
2022/04/27 03:09:48;;;;;;;;;;;8.90;99.90;;;;;;5023521;28;19932;-70
2022/04/27 03:12:15;;;;;;;;;;;8.90;99.90;;;;;;5022303;28;19929;-70
2022/04/27 03:14:41;;;;;;;;;;;8.90;99.90;;;;;;5023994;28;19998;-70
2022/04/27 03:17:08;;;;;;;;;;;8.80;99.90;;;;;;5029773;28;19929;-71
2022/04/27 03:19:34;;;;;;;;;;;8.80;99.90;;;;;;5021242;28;19937;-68
2022/04/27 03:22:02;;;;;;;;;;;8.80;99.90;;;;;;5026819;28;19987;-69
2022/04/27 03:24:29;;;;;;;;;;;8.70;99.90;;;;;;5028226;28;19925;-68
2022/04/27 03:26:55;;;;;;;;;;;8.70;99.90;;;;;;5028768;28;19925;-70
2022/04/27 03:29:22;;;;;;;;;;;8.60;99.90;;;;;;5026131;28;19932;-70
2022/04/27 03:31:48;;;;;;;;;;;8.60;99.90;;;;;;5025609;28;19925;-71
2022/04/27 03:34:15;;;;;;;;;;;8.50;99.90;;;;;;5024244;28;19925;-70
2022/04/27 03:36:41;;;;;;;;;;;8.50;99.90;;;;;;5027714;28;19936;-71
2022/04/27 03:39:09;;;;;;;;;;;8.40;99.90;;;;;;5026872;28;19994;-70
2022/04/27 03:41:36;;;;;;;;;;;8.30;99.90;;;;;;5023443;28;19984;-70
2022/04/27 03:44:02;;;;;;;;;;;8.30;99.90;;;;;;5029306;28;19929;-71
2022/04/27 03:46:29;;;;;;;;;;;8.20;99.90;;;;;;5027751;28;19929;-70
2022/04/27 03:48:55;;;;;;;;;;;8.20;99.90;;;;;;5028451;28;19929;-70
2022/04/27 03:51:22;;;;;;;;;;;8.10;99.90;;;;;;5024059;28;19929;-70
2022/04/27 03:53:48;;;;;;;;;;;8.10;99.90;;;;;;5029153;28;19929;-70
2022/04/27 03:56:16;;;;;;;;;;;8.00;99.90;;;;;;5027423;28;19978;-71
2022/04/27 03:58:42;;;;;;;;;;;8.10;99.90;;;;;;5030264;28;19929;-70
2022/04/27 04:01:09;;;;;;;;;;;8.00;99.90;;;;;;5026564;28;19979;-70
2022/04/27 04:03:35;;;;;;;;;;;8.00;99.90;;;;;;5025336;28;19933;-71
2022/04/27 04:06:02;;;;;;;;;;;8.00;99.90;;;;;;5031297;28;20341;-70
2022/04/27 04:08:28;;;;;;;;;;;7.90;99.90;;;;;;5030462;28;19933;-71
2022/04/27 04:10:55;;;;;;;;;;;7.90;99.90;;;;;;5026396;28;19929;-70
2022/04/27 04:13:23;;;;;;;;;;;7.90;99.90;;;;;;5028602;28;19929;-70
2022/04/27 04:15:50;;;;;;;;;;;7.90;99.90;;;;;;5021450;28;19928;-70
2022/04/27 04:18:17;;;;;;;;;;;7.90;99.90;;;;;;5024697;28;19925;-69
2022/04/27 04:20:44;;;;;;;;;;;7.90;99.90;;;;;;5026938;28;20019;-70
2022/04/27 04:23:10;;;;;;;;;;;7.90;99.90;;;;;;5020355;28;19949;-69
2022/04/27 04:28:31;;;;;;;;;;;7.90;99.90;;;;;;5026342;28;19979;-71
2022/04/27 04:30:59;;;;;;;;;;;7.90;99.90;;;;;;5026874;28;19932;-73
2022/04/27 04:33:25;;;;;;;;;;;7.90;99.90;;;;;;5025375;28;20026;-71
2022/04/27 04:35:52;;;;;;;;;;;7.90;99.90;;;;;;5026318;28;19932;-70
2022/04/27 04:38:19;;;;;;;;;;;7.80;99.90;;;;;;5021283;28;19933;-70
2022/04/27 04:40:46;;;;;;;;;;;7.80;99.90;;;;;;5024908;28;20020;-70
2022/04/27 04:43:12;;;;;;;;;;;7.90;99.90;;;;;;5022218;28;20072;-70
2022/04/27 04:45:40;;;;;;;;;;;7.90;99.90;;;;;;5027125;28;19925;-70
2022/04/27 04:48:08;;;;;;;;;;;7.90;99.90;;;;;;5022767;28;19979;-70
2022/04/27 04:50:34;;;;;;;;;;;7.90;99.90;;;;;;5029343;28;20395;-70
2022/04/27 04:53:01;;;;;;;;;;;7.90;99.90;;;;;;5028140;28;19928;-70
2022/04/27 04:55:28;;;;;;;;;;;8.00;99.90;;;;;;5028730;28;20020;-70
2022/04/27 04:57:54;;;;;;;;;;;7.90;99.90;;;;;;5024886;28;19932;-70
2022/04/27 05:00:20;;;;;;;;;;;7.90;99.90;;;;;;5026502;28;19929;-70
2022/04/27 05:02:48;;;;;;;;;;;7.90;99.90;;;;;;5026873;28;19929;-70
2022/04/27 05:05:15;;;;;;;;;;;7.90;99.90;;;;;;5029022;28;19999;-70
2022/04/27 05:07:41;;;;;;;;;;;7.90;99.90;;;;;;5029492;28;20039;-70
2022/04/27 05:10:08;;;;;;;;;;;7.80;99.90;;;;;;5029824;28;20007;-70
2022/04/27 05:12:35;;;;;;;;;;;7.80;99.90;;;;;;5025555;28;19933;-70
2022/04/27 05:15:02;;;;;;;;;;;7.80;99.90;;;;;;5026094;28;19929;-70
2022/04/27 05:17:28;;;;;;;;;;;7.80;99.90;;;;;;5028534;28;19925;-70
2022/04/27 05:19:56;;;;;;;;;;;7.80;99.90;;;;;;5025423;28;20590;-70
2022/04/27 05:22:23;;;;;;;;;;;7.80;99.90;;;;;;5026941;28;20615;-70
2022/04/27 05:24:49;;;;;;;;;;;7.80;99.90;;;;;;5024297;28;19925;-70
2022/04/27 05:27:17;;;;;;;;;;;7.80;99.90;;;;;;5028368;28;20349;-70
2022/04/27 05:32:27;;;;;;;;;;;7.70;99.90;;;;;;5029806;28;19979;-70
2022/04/27 05:34:54;;;;;;;;;;;7.80;99.90;;;;;;5028254;28;19925;-70
2022/04/27 05:37:22;;;;;;;;;;;7.80;99.90;;;;;;5025937;28;20386;-69
2022/04/27 05:39:48;;;;;;;;;;;7.80;99.90;;;;;;5029103;28;19932;-70
2022/04/27 05:42:15;;;;;;;;;;;7.80;99.90;;;;;;5026162;28;19925;-70
2022/04/27 05:44:41;;;;;;;;;;;7.80;99.90;;;;;;5026864;28;19953;-69
2022/04/27 05:47:08;;;;;;;;;;;7.80;99.90;;;;;;5029466;28;19959;-70
2022/04/27 05:49:34;;;;;;;;;;;7.80;99.90;;;;;;5028477;28;19936;-71
2022/04/27 05:52:01;;;;;;;;;;;7.80;99.90;;;;;;5027287;28;19935;-70
2022/04/27 05:54:29;;;;;;;;;;;7.80;99.90;;;;;;5029046;28;19929;-70
2022/04/27 05:56:55;;;;;;;;;;;7.90;99.90;;;;;;5026998;28;19925;-70
2022/04/27 05:59:22;;;;;;;;;;;7.90;99.90;;;;;;5031506;28;20462;-70
2022/04/27 06:01:48;;;;;;;;;;;8.00;99.90;;;;;;5027920;28;20015;-70
2022/04/27 06:04:15;;;;;;;;;;;8.10;99.90;;;;;;5028864;28;19925;-70
2022/04/27 06:06:41;;;;;;;;;;;8.20;99.90;;;;;;5029284;28;20549;-70
2022/04/27 06:09:08;;;;;;;;;;;8.20;99.90;;;;;;5028307;28;19983;-70
2022/04/27 06:11:36;;;;;;;;;;;8.30;99.90;;;;;;5020356;28;20019;-70
2022/04/27 06:14:02;;;;;;;;;;;8.50;99.90;;;;;;5029320;28;19937;-70
2022/04/27 06:16:32;;;;;;;;;;;8.70;99.90;;;;;;5029382;28;19972;-70
2022/04/27 06:18:58;;;;;;;;;;;8.80;99.90;;;;;;5028307;28;20024;-70
2022/04/27 06:21:30;;;;;;;;;;;9.00;99.90;;;;;;5028695;28;20469;-70
2022/04/27 06:23:57;;;;;;;;;;;9.20;99.90;;;;;;5028350;28;20043;-70
2022/04/27 06:26:24;;;;;;;;;;;9.40;99.90;;;;;;5026432;28;19937;-70
2022/04/27 06:28:52;;;;;;;;;;;9.60;99.90;;;;;;5033271;28;19925;-70
2022/04/27 06:31:19;;;;;;;;;;;9.80;99.90;;;;;;5029565;28;19924;-70
2022/04/27 06:33:46;;;;;;;;;;;10.10;99.90;;;;;;5027971;28;20349;-70
2022/04/27 06:36:12;;;;;;;;;;;10.30;99.90;;;;;;5029239;28;19929;-70
2022/04/27 06:38:39;;;;;;;;;;;10.50;99.90;;;;;;5029348;28;19929;-70
2022/04/27 06:41:05;;;;;;;;;;;10.60;99.90;;;;;;5028022;28;19933;-70
2022/04/27 06:43:32;;;;;;;;;;;10.70;99.90;;;;;;5029143;28;19932;-70
2022/04/27 06:46:00;;;;;;;;;;;10.70;99.90;;;;;;5026807;28;20633;-70
2022/04/27 06:48:26;;;;;;;;;;;10.70;99.90;;;;;;5026971;28;19925;-70
2022/04/27 06:50:53;;;;;;;;;;;10.70;99.90;;;;;;5030649;28;19925;-70
2022/04/27 06:53:20;;;;;;;;;;;10.70;99.90;;;;;;5032202;28;19929;-70
2022/04/27 06:55:47;;;;;;;;;;;10.70;99.90;;;;;;5031225;28;19985;-70
2022/04/27 06:58:14;;;;;;;;;;;10.80;99.90;;;;;;5031433;28;20022;-70
2022/04/27 07:00:40;;;;;;;;;;;10.80;99.90;;;;;;5032071;28;20362;-70
2022/04/27 07:03:08;;;;;;;;;;;10.90;99.90;;;;;;5032743;28;19929;-70
2022/04/27 07:05:35;;;;;;;;;;;11.00;99.90;;;;;;5031729;28;19929;-69
2022/04/27 07:08:02;;;;;;;;;;;11.10;99.90;;;;;;5032910;28;19924;-70
2022/04/27 07:10:36;;;;;;;;;;;11.30;99.90;;;;;;5031603;28;19972;-68
2022/04/27 07:13:03;;;;;;;;;;;11.40;99.90;;;;;;5032337;28;19941;-70
2022/04/27 07:15:29;;;;;;;;;;;11.50;99.90;;;;;;5032563;28;20042;-70
2022/04/27 07:17:56;;;;;;;;;;;11.70;99.90;;;;;;5031799;28;20420;-68
2022/04/27 07:20:24;;;;;;;;;;;11.80;99.90;;;;;;5030938;28;19951;-69
2022/04/27 07:22:50;;;;;;;;;;;11.90;99.90;;;;;;5030446;28;20401;-68
2022/04/27 07:25:18;;;;;;;;;;;12.10;99.90;;;;;;5031421;28;19979;-68
2022/04/27 07:27:45;;;;;;;;;;;12.20;99.90;;;;;;5031059;28;20390;-69
2022/04/27 07:30:11;;;;;;;;;;;12.30;99.90;;;;;;5031789;28;20342;-69
2022/04/27 07:32:38;;;;;;;;;;;12.50;99.90;;;;;;5033553;28;19928;-70
2022/04/27 07:35:05;;;;;;;;;;;12.60;99.90;;;;;;5023432;28;19937;-70
2022/04/27 07:37:33;;;;;;;;;;;12.80;99.90;;;;;;5031278;28;19984;-68
2022/04/27 07:40:01;;;;;;;;;;;13.00;99.90;;;;;;5031760;28;20527;-68
2022/04/27 07:42:27;;;;;;;;;;;13.10;99.90;;;;;;5030953;28;20331;-70
2022/04/27 07:44:54;;;;;;;;;;;13.30;99.90;;;;;;5032025;28;19936;-70
2022/04/27 07:47:20;;;;;;;;;;;13.40;99.90;;;;;;5031888;28;19979;-70
2022/04/27 07:49:47;;;;;;;;;;;13.50;99.90;;;;;;5030065;28;19935;-70
2022/04/27 07:52:14;;;;;;;;;;;13.60;99.90;;;;;;5030321;28;19929;-71
2022/04/27 07:54:43;;;;;;;;;;;13.80;99.90;;;;;;5029505;28;19987;-68
2022/04/27 07:57:10;;;;;;;;;;;14.00;99.90;;;;;;5030505;28;19929;-70
2022/04/27 07:59:36;;;;;;;;;;;14.20;99.90;;;;;;5031315;28;19933;-70
2022/04/27 08:02:03;;;;;;;;;;;14.40;99.90;;;;;;5031159;28;19995;-70
2022/04/27 08:04:29;;;;;;;;;;;14.50;99.90;;;;;;5030891;28;20390;-70
2022/04/27 08:06:56;;;;;;;;;;;14.70;99.90;;;;;;5031310;28;19932;-70
2022/04/27 08:09:22;;;;;;;;;;;14.90;99.90;;;;;;5028788;28;20427;-70
2022/04/27 08:11:51;;;;;;;;;;;15.00;99.90;;;;;;5029899;28;19929;-72
2022/04/27 08:14:18;;;;;;;;;;;15.20;99.90;;;;;;5031494;28;19925;-70
2022/04/27 08:16:44;;;;;;;;;;;15.30;99.90;;;;;;5031441;28;20011;-70
2022/04/27 08:19:11;;;;;;;;;;;15.50;99.90;;;;;;5029771;28;19929;-69
2022/04/27 08:21:37;;;;;;;;;;;15.60;99.90;;;;;;5030102;28;19933;-69
2022/04/27 08:24:08;;;;;;;;;;;15.70;99.90;;;;;;5031531;28;19925;-69
2022/04/27 08:26:35;;;;;;;;;;;15.90;99.90;;;;;;5030891;28;19925;-69
2022/04/27 08:29:03;;;;;;;;;;;16.10;99.90;;;;;;5031042;28;19925;-68
2022/04/27 08:31:29;;;;;;;;;;;16.30;99.90;;;;;;5036296;28;19925;-69
2022/04/27 08:33:56;;;;;;;;;;;16.40;99.90;;;;;;5032055;28;20392;-69
2022/04/27 08:36:23;;;;;;;;;;;16.50;99.90;;;;;;5030026;28;20366;-69
2022/04/27 08:38:51;;;;;;;;;;;16.70;99.90;;;;;;5030837;28;19925;-70
2022/04/27 08:41:17;;;;;;;;;;;16.80;99.90;;;;;;5028461;28;19929;-69
2022/04/27 08:43:44;;;;;;;;;;;16.90;99.90;;;;;;5031179;28;19925;-69
2022/04/27 08:46:13;;;;;;;;;;;17.00;99.90;;;;;;5031049;28;19932;-69
2022/04/27 08:48:39;;;;;;;;;;;17.10;99.90;;;;;;5030538;28;19959;-71
2022/04/27 08:51:08;;;;;;;;;;;17.30;99.90;;;;;;5028442;28;19987;-71
2022/04/27 08:53:35;;;;;;;;;;;17.40;99.90;;;;;;5031074;28;19955;-70
2022/04/27 08:56:01;;;;;;;;;;;17.60;99.90;;;;;;5031357;28;19925;-70
2022/04/27 08:58:28;;;;;;;;;;;17.60;99.90;;;;;;5030620;28;20383;-69
2022/04/27 09:00:55;;;;;;;;;;;17.80;99.90;;;;;;5030440;28;19940;-69
2022/04/27 09:03:23;;;;;;;;;;;17.90;99.90;;;;;;5029898;28;20059;-69
2022/04/27 09:05:51;;;;;;;;;;;18.00;99.90;;;;;;5029510;28;19925;-69
2022/04/27 09:08:17;;;;;;;;;;;18.10;99.90;;;;;;5029906;28;20012;-69
2022/04/27 09:10:44;;;;;;;;;;;18.20;99.90;;;;;;5031092;28;19933;-69
2022/04/27 09:13:10;;;;;;;;;;;18.30;99.90;;;;;;5028882;28;19929;-70
2022/04/27 09:15:37;;;;;;;;;;;18.50;99.90;;;;;;5031951;28;19925;-69
2022/04/27 09:20:59;;;;;;;;;;;18.50;99.90;;;;;;5025799;28;19936;-69
2022/04/27 09:23:28;;;;;;;;;;;18.60;99.90;;;;;;5029886;28;19929;-69
2022/04/27 09:25:56;;;;;;;;;;;18.80;99.90;;;;;;5030894;28;20394;-69
2022/04/27 09:28:23;;;;;;;;;;;19.00;99.90;;;;;;5035089;28;19955;-69
2022/04/27 09:30:50;;;;;;;;;;;19.10;99.90;;;;;;5029911;28;19933;-69
2022/04/27 09:33:30;;;;;;;;;;;19.20;99.90;;;;;;5033027;28;20457;-69
2022/04/27 09:35:58;;;;;;;;;;;19.30;99.90;;;;;;5025412;28;19925;-69
2022/04/27 09:38:24;;;;;;;;;;;19.40;99.90;;;;;;5028914;28;19940;-69
2022/04/27 09:40:52;;;;;;;;;;;19.60;99.90;;;;;;5029213;28;19933;-69
2022/04/27 09:43:40;;;;;;;;;;;19.70;99.90;;;;;;5024291;28;20414;-69
2022/04/27 09:46:15;;;;;;;;;;;19.60;99.90;;;;;;5029917;28;19979;-69
2022/04/27 09:48:42;;;;;;;;;;;19.70;99.90;;;;;;5030177;28;19960;-69
2022/04/27 09:51:14;;;;;;;;;;;19.90;99.90;;;;;;5043469;22;19925;-69
2022/04/27 09:53:41;;;;;;;;;;;20.10;99.90;;;;;;5028990;28;19969;-71
2022/04/27 09:56:10;;;;;;;;;;;20.30;99.90;;;;;;5025359;28;20099;-72
2022/04/27 09:58:40;;;;;;;;;;;20.40;99.90;;;;;;5029721;28;19971;-72
2022/04/27 10:01:07;;;;;;;;;;;20.30;99.90;;;;;;5045146;28;19929;-72
2022/04/27 10:03:35;;;;;;;;;;;20.40;99.90;;;;;;5032137;28;19936;-72
2022/04/27 10:06:02;;;;;;;;;;;20.50;99.90;;;;;;5021458;28;19929;-72
2022/04/27 10:08:30;;;;;;;;;;;20.60;99.90;;;;;;5032599;28;20383;-72
2022/04/27 10:10:57;;;;;;;;;;;20.80;99.90;;;;;;5036900;28;19956;-71
2022/04/27 10:13:25;;;;;;;;;;;20.90;99.90;;;;;;5047173;28;19986;-71
2022/04/27 10:15:52;;;;;;;;;;;21.00;99.90;;;;;;5045535;28;19932;-72
2022/04/27 10:18:19;;;;;;;;;;;21.20;99.90;;;;;;5028068;28;19937;-71
2022/04/27 10:20:48;;;;;;;;;;;21.50;99.90;;;;;;5022991;28;20398;-71
2022/04/27 10:23:19;;;;;;;;;;;21.80;99.90;;;;;;5030168;28;20312;-71
2022/04/27 10:26:05;;;;;;;;;;;21.80;99.90;;;;;;5037551;28;20016;-71
2022/04/27 10:28:34;;;;;;;;;;;21.90;99.90;;;;;;5034440;28;20200;-72
2022/04/27 10:31:07;;;;;;;;;;;21.90;99.90;;;;;;5046389;28;20394;-72
2022/04/27 10:33:39;;;;;;;;;;;22.00;99.90;;;;;;5030890;28;20108;-72
2022/04/27 10:36:20;;;;;;;;;;;22.20;99.90;;;;;;5031395;28;19932;-71
2022/04/27 10:39:15;;;;;;;;;;;22.30;99.90;;;;;;5041807;28;19932;-71
2022/04/27 10:41:42;;;;;;;;;;;22.20;98.70;;;;;;5028193;28;20010;-71
2022/04/27 10:44:10;;;;;;;;;;;22.10;99.90;;;;;;5034575;28;20075;-71
2022/04/27 10:46:38;;;;;;;;;;;22.10;99.90;;;;;;5029036;28;19929;-73
2022/04/27 10:49:19;;;;;;;;;;;22.20;99.40;;;;;;5042082;28;19976;-73
2022/04/27 10:51:58;;;;;;;;;;;22.50;99.40;;;;;;5029630;28;19983;-73
2022/04/27 10:54:26;;;;;;;;;;;22.50;98.80;;;;;;5048758;28;20001;-71
2022/04/27 10:56:53;;;;;;;;;;;22.50;98.80;;;;;;5049188;28;19955;-71
2022/04/27 10:59:38;;;;;;;;;;;22.70;98.40;;;;;;5048846;28;19940;-71
2022/04/27 11:02:06;;;;;;;;;;;22.80;98.20;;;;;;5038598;28;19990;-73
2022/04/27 11:04:33;;;;;;;;;;;23.00;98.10;;;;;;5027854;28;19937;-72
2022/04/27 11:07:11;;;;;;;;;;;23.10;97.40;;;;;;5029552;28;19925;-73
2022/04/27 11:09:55;;;;;;;;;;;23.20;97.40;;;;;;5023060;28;20320;-71
2022/04/27 11:12:22;;;;;;;;;;;23.20;97.40;;;;;;5047291;28;19933;-71
2022/04/27 11:14:49;;;;;;;;;;;23.50;96.10;;;;;;5045418;28;19929;-73
2022/04/27 11:17:28;;;;;;;;;;;23.60;96.50;;;;;;5028313;28;20363;-71
2022/04/27 11:19:55;;;;;;;;;;;23.60;96.60;;;;;;5028500;28;19925;-71
2022/04/27 11:22:21;;;;;;;;;;;23.50;96.40;;;;;;5029617;28;19929;-72
2022/04/27 11:24:48;;;;;;;;;;;23.40;95.50;;;;;;5034028;28;20442;-73
2022/04/27 11:27:21;;;;;;;;;;;23.20;95.80;;;;;;5029336;28;19980;-71
2022/04/27 11:29:48;;;;;;;;;;;23.20;95.20;;;;;;5035325;28;20397;-71
2022/04/27 11:32:15;;;;;;;;;;;23.10;94.00;;;;;;5036839;28;19933;-73
2022/04/27 11:34:47;;;;;;;;;;;23.10;94.00;;;;;;5030984;28;20383;-71
2022/04/27 11:37:15;;;;;;;;;;;23.20;95.50;;;;;;5033506;28;19968;-71
2022/04/27 11:39:41;;;;;;;;;;;23.60;95.50;;;;;;5032243;28;19999;-72
2022/04/27 11:42:12;;;;;;;;;;;23.90;94.60;;;;;;5035399;28;19952;-72
2022/04/27 11:44:38;;;;;;;;;;;24.00;93.80;;;;;;5036835;28;19933;-71
2022/04/27 11:47:05;;;;;;;;;;;23.80;93.80;;;;;;5025790;28;19933;-71
2022/04/27 11:49:31;;;;;;;;;;;23.20;93.10;;;;;;5024424;28;19937;-74
2022/04/27 11:51:59;;;;;;;;;;;22.60;94.10;;;;;;5030737;28;20469;-73
2022/04/27 11:54:30;;;;;;;;;;;22.30;93.40;;;;;;5032390;28;19940;-73
2022/04/27 11:56:59;;;;;;;;;;;22.00;93.30;;;;;;5031269;28;19924;-73
2022/04/27 11:59:26;;;;;;;;;;;21.90;94.00;;;;;;5035503;28;20361;-72
2022/04/27 12:01:53;;;;;;;;;;;22.00;93.00;;;;;;5029751;28;20034;-71
2022/04/27 12:04:19;;;;;;;;;;;22.20;94.20;;;;;;5037587;28;19935;-71
2022/04/27 12:06:46;;;;;;;;;;;22.70;94.40;;;;;;5031470;28;19929;-72
2022/04/27 12:09:17;;;;;;;;;;;23.20;93.30;;;;;;5030480;28;19929;-72
2022/04/27 12:11:43;;;;;;;;;;;23.30;93.50;;;;;;5033608;28;19929;-72
2022/04/27 12:14:10;;;;;;;;;;;23.30;92.10;;;;;;5029046;28;20354;-71
2022/04/27 12:16:40;;;;;;;;;;;23.20;92.90;;;;;;5032309;28;19928;-71
2022/04/27 12:19:07;;;;;;;;;;;23.20;92.80;;;;;;5040185;28;19959;-72
2022/04/27 12:21:33;;;;;;;;;;;23.60;92.80;;;;;;5027322;28;19937;-71
2022/04/27 12:24:14;;;;;;;;;;;24.00;92.70;;;;;;5026851;28;20662;-70
2022/04/27 12:26:42;;;;;;;;;;;24.20;91.90;;;;;;5036905;28;20039;-72
2022/04/27 12:29:08;;;;;;;;;;;24.00;91.70;;;;;;5037328;28;19925;-70
2022/04/27 12:31:37;;;;;;;;;;;23.70;91.60;;;;;;5028373;28;20031;-71
2022/04/27 12:37:29;;;;;;;;;;;23.40;92.50;;;;;;5036077;28;20031;-71
2022/04/27 12:39:39;;;;;;;;;;;22.70;92.30;;;;;;5044646;28;19931;-71
2022/04/27 12:42:08;;;;;;;;;;;22.50;92.10;;;;;;5037566;28;19939;-71
2022/04/27 12:44:38;;;;;;;;;;;22.50;92.40;;;;;;5028807;28;19974;-72
2022/04/27 12:47:07;;;;;;;;;;;22.30;92.90;;;;;;5042394;28;19932;-70
2022/04/27 12:49:35;;;;;;;;;;;22.20;92.40;;;;;;5032371;28;19969;-71
2022/04/27 12:52:14;;;;;;;;;;;22.10;92.10;;;;;;5045408;28;20065;-71
2022/04/27 12:54:41;;;;;;;;;;;22.10;93.10;;;;;;5036234;28;20048;-71
2022/04/27 12:57:09;;;;;;;;;;;22.00;92.60;;;;;;5041932;28;19994;-71
2022/04/27 12:59:51;;;;;;;;;;;21.90;93.30;;;;;;5044154;28;19990;-71
2022/04/27 13:02:17;;;;;;;;;;;21.90;92.10;;;;;;5043231;28;19942;-72
2022/04/27 13:04:47;;;;;;;;;;;21.70;92.40;;;;;;5039379;28;19925;-71
2022/04/27 13:07:13;;;;;;;;;;;21.90;92.70;;;;;;5044918;28;20006;-71
2022/04/27 13:12:29;;;;;;;;;;;22.50;92.80;;;;;;5045662;28;20006;-71
2022/04/27 13:14:56;;;;;;;;;;;22.70;93.00;;;;;;5045517;28;20398;-71
2022/04/27 13:17:22;;;;;;;;;;;22.90;91.90;;;;;;5032789;28;20408;-71
2022/04/27 13:19:49;;;;;;;;;;;22.70;91.40;;;;;;5041930;28;19928;-71
2022/04/27 13:22:16;;;;;;;;;;;22.50;92.10;;;;;;5040930;28;19984;-71
2022/04/27 13:24:42;;;;;;;;;;;22.40;92.40;;;;;;5034248;28;19941;-71
2022/04/27 13:27:09;;;;;;;;;;;22.50;92.20;;;;;;5036330;28;20346;-72
2022/04/27 13:29:36;;;;;;;;;;;22.50;92.40;;;;;;5026021;28;20039;-72
2022/04/27 13:32:03;;;;;;;;;;;22.60;93.00;;;;;;5024837;28;19937;-71
2022/04/27 13:34:30;;;;;;;;;;;22.60;92.60;;;;;;5036998;28;20413;-71
2022/04/27 13:36:56;;;;;;;;;;;22.50;92.70;;;;;;5030585;28;20307;-72
2022/04/27 13:39:23;;;;;;;;;;;22.50;92.40;;;;;;5034904;28;20370;-71
2022/04/27 13:41:49;;;;;;;;;;;22.50;92.40;;;;;;5040516;28;19928;-71
2022/04/27 13:44:16;;;;;;;;;;;22.80;92.50;;;;;;5038583;28;20298;-71
2022/04/27 13:46:44;;;;;;;;;;;23.40;93.10;;;;;;5025584;28;19925;-72
2022/04/27 13:49:10;;;;;;;;;;;23.60;92.10;;;;;;5027487;28;20314;-71
2022/04/27 13:51:37;;;;;;;;;;;23.60;92.00;;;;;;5036988;28;19933;-70
2022/04/27 13:54:04;;;;;;;;;;;23.40;91.50;;;;;;5021802;28;19929;-69
2022/04/27 13:56:30;;;;;;;;;;;23.20;91.20;;;;;;5024857;28;19965;-69
2022/04/27 13:58:57;;;;;;;;;;;23.00;92.20;;;;;;5030222;28;19979;-69
2022/04/27 14:01:23;;;;;;;;;;;22.90;91.80;;;;;;5025527;28;20014;-69
2022/04/27 14:03:51;;;;;;;;;;;22.70;92.10;;;;;;5037153;28;19928;-69
2022/04/27 14:06:18;;;;;;;;;;;22.60;91.70;;;;;;5036313;28;19932;-69
2022/04/27 14:08:44;;;;;;;;;;;22.50;91.70;;;;;;5022911;28;19929;-69
2022/04/27 14:13:10;;;;;;;;;;;22.40;92.20;;;;;;5032372;28;19928;-69
2022/04/27 14:13:58;;;;;;;;;;;22.30;92.60;;;;;;5021511;28;20036;-69
2022/04/27 14:19:10;;;;;;;;;;;22.30;91.70;;;;;;5030501;28;20018;-69
2022/04/27 14:21:36;;;;;;;;;;;22.80;92.40;;;;;;5031916;28;20075;-69
2022/04/27 14:24:03;;;;;;;;;;;23.90;92.20;;;;;;5032841;28;19932;-69
2022/04/27 14:26:29;;;;;;;;;;;25.10;92.10;;;;;;5035800;28;20020;-69
2022/04/27 14:28:56;;;;;;;;;;;26.60;90.80;;;;;;5038099;28;19992;-69
2022/04/27 14:31:22;;;;;;;;;;;27.90;86.70;;;;;;5032870;28;19929;-69
2022/04/27 14:33:49;;;;;;;;;;;28.40;86.20;;;;;;5034750;28;20414;-70
2022/04/27 14:36:17;;;;;;;;;;;29.00;84.10;;;;;;5035584;28;19990;-69
2022/04/27 14:38:43;;;;;;;;;;;29.50;83.70;;;;;;5034751;28;19984;-70
2022/04/27 14:41:11;;;;;;;;;;;30.00;82.40;;;;;;5039877;28;19933;-70
2022/04/27 14:43:38;;;;;;;;;;;30.40;77.50;;;;;;5027768;28;19947;-70
2022/04/27 14:46:04;;;;;;;;;;;30.40;75.20;;;;;;5022370;28;20008;-70
2022/04/27 14:48:33;;;;;;;;;;;30.40;75.30;;;;;;5029084;28;19937;-70